Time;durP1;ratioP1;P1;durP2;ratioP2;P2;SDS_P1;SDS_P2;PMS_P1;PMS_P2;Temp;Humidity;BMP_temperature;BMP_pressure;BME280_temperature;BME280_humidity;BME280_pressure;Samples;Min_cycle;Max_cycle;Signal;HPM_P1;HPM_P2
2021/01/08 00:00:10;;;;;;;2.72;2.05;;;;;;;;;;5011859;28;20382;-52
2021/01/08 00:02:36;;;;;;;4.20;2.65;;;;;;;;;;5011818;28;20018;-52
2021/01/08 00:05:03;;;;;;;6.25;3.05;;;;;;;;;;5011988;28;20028;-54
2021/01/08 00:07:35;;;;;;;5.82;3.78;;;;;;;;;;5011280;28;20022;-52
2021/01/08 00:10:01;;;;;;;6.38;3.30;;;;;;;;;;5010484;28;20029;-51
2021/01/08 00:12:31;;;;;;;5.32;3.30;;;;;;;;;;4993391;28;20049;-52
2021/01/08 00:14:57;;;;;;;5.13;3.08;;;;;;;;;;4993950;28;20037;-52
2021/01/08 00:17:25;;;;;;;5.97;3.70;;;;;;;;;;4992085;28;20042;-56
2021/01/08 00:19:52;;;;;;;6.32;3.58;;;;;;;;;;4992378;28;20097;-53
2021/01/08 00:22:18;;;;;;;7.20;3.92;;;;;;;;;;5005543;28;20025;-55
2021/01/08 00:24:44;;;;;;;6.00;3.50;;;;;;;;;;5003310;28;20034;-52
2021/01/08 00:27:10;;;;;;;6.55;4.15;;;;;;;;;;4993703;28;20054;-54
2021/01/08 00:29:36;;;;;;;6.95;3.97;;;;;;;;;;4992222;28;20114;-54
2021/01/08 00:32:02;;;;;;;6.75;3.95;;;;;;;;;;4993630;28;20045;-57
2021/01/08 00:34:28;;;;;;;4.88;2.92;;;;;;;;;;4992449;28;20095;-55
2021/01/08 00:36:55;;;;;;;3.95;2.33;;;;;;;;;;5001894;28;20041;-57
2021/01/08 00:39:22;;;;;;;4.60;3.13;;;;;;;;;;5012308;28;20025;-52
2021/01/08 00:41:48;;;;;;;4.93;2.70;;;;;;;;;;5015598;28;20022;-51
2021/01/08 00:44:14;;;;;;;7.55;4.55;;;;;;;;;;5015712;28;20033;-54
2021/01/08 00:46:41;;;;;;;4.85;2.90;;;;;;;;;;5015711;28;20385;-55
2021/01/08 00:49:08;;;;;;;4.10;2.83;;;;;;;;;;5015842;28;20026;-53
2021/01/08 00:51:34;;;;;;;5.50;3.35;;;;;;;;;;5015939;28;20045;-54
2021/01/08 00:54:01;;;;;;;5.32;3.40;;;;;;;;;;5015686;28;20165;-52
2021/01/08 00:56:27;;;;;;;3.90;2.70;;;;;;;;;;5015395;28;20095;-53
2021/01/08 00:58:54;;;;;;;5.65;3.30;;;;;;;;;;5015500;28;20386;-55
2021/01/08 01:01:20;;;;;;;4.45;3.28;;;;;;;;;;5015425;28;20022;-55
2021/01/08 01:03:46;;;;;;;4.82;3.00;;;;;;;;;;5015544;28;20026;-55
2021/01/08 01:06:13;;;;;;;6.22;4.28;;;;;;;;;;5015804;28;20073;-50
2021/01/08 01:08:39;;;;;;;6.75;4.85;;;;;;;;;;5015813;28;20036;-55
2021/01/08 01:11:05;;;;;;;5.32;3.30;;;;;;;;;;5015435;28;20089;-52
2021/01/08 01:13:31;;;;;;;4.95;3.50;;;;;;;;;;5015377;28;20359;-52
2021/01/08 01:15:57;;;;;;;45.10;21.02;;;;;;;;;;5015037;28;20084;-52
2021/01/08 01:18:23;;;;;;;16.27;8.75;;;;;;;;;;5015547;28;20030;-52
2021/01/08 01:20:49;;;;;;;5.15;3.55;;;;;;;;;;5015212;28;20158;-52
2021/01/08 01:23:16;;;;;;;4.45;2.75;;;;;;;;;;5015025;28;20045;-52
2021/01/08 01:25:42;;;;;;;4.97;2.72;;;;;;;;;;5014786;28;20041;-53
2021/01/08 01:28:08;;;;;;;5.15;2.63;;;;;;;;;;5015291;28;20044;-53
2021/01/08 01:30:34;;;;;;;4.80;3.13;;;;;;;;;;5015270;28;20025;-52
2021/01/08 01:33:00;;;;;;;5.45;2.95;;;;;;;;;;5014874;28;20053;-54
2021/01/08 01:35:26;;;;;;;4.07;2.42;;;;;;;;;;5012813;28;20080;-54
2021/01/08 01:37:53;;;;;;;5.40;2.95;;;;;;;;;;5014386;28;20030;-53
2021/01/08 01:40:20;;;;;;;5.03;3.13;;;;;;;;;;5014481;28;20030;-55
2021/01/08 01:42:46;;;;;;;3.80;2.58;;;;;;;;;;4998944;28;20038;-52
2021/01/08 01:45:12;;;;;;;4.07;2.50;;;;;;;;;;4998546;28;20084;-53
2021/01/08 01:47:39;;;;;;;4.40;2.38;;;;;;;;;;4995820;28;20023;-52
2021/01/08 01:50:05;;;;;;;3.15;2.28;;;;;;;;;;4996746;28;20093;-54
2021/01/08 01:52:31;;;;;;;4.68;2.10;;;;;;;;;;4994270;28;20104;-52
2021/01/08 01:54:58;;;;;;;2.47;1.58;;;;;;;;;;4995019;28;20479;-51
2021/01/08 01:57:24;;;;;;;3.17;1.92;;;;;;;;;;4993997;28;20038;-52
2021/01/08 01:59:50;;;;;;;3.42;2.30;;;;;;;;;;5001095;28;20076;-52
2021/01/08 02:02:21;;;;;;;3.00;1.83;;;;;;;;;;4999371;28;20022;-53
2021/01/08 02:04:47;;;;;;;3.90;2.10;;;;;;;;;;4998801;28;20027;-51
2021/01/08 02:07:14;;;;;;;3.35;1.90;;;;;;;;;;4996048;28;20084;-53
2021/01/08 02:09:42;;;;;;;2.63;1.60;;;;;;;;;;5000638;28;20018;-52
2021/01/08 02:12:08;;;;;;;3.08;1.80;;;;;;;;;;4998363;28;20125;-52
2021/01/08 02:14:35;;;;;;;3.80;2.22;;;;;;;;;;5001082;28;20372;-52
2021/01/08 02:17:02;;;;;;;2.33;1.60;;;;;;;;;;4996110;28;20085;-51
2021/01/08 02:19:28;;;;;;;3.35;1.88;;;;;;;;;;4994633;28;20108;-54
2021/01/08 02:22:03;;;;;;;3.83;1.90;;;;;;;;;;4995796;28;20030;-52
2021/01/08 02:24:53;;;;;;;3.10;1.88;;;;;;;;;;4995043;28;20077;-52
2021/01/08 02:27:19;;;;;;;4.32;1.63;;;;;;;;;;4988860;28;20577;-53
2021/01/08 02:29:45;;;;;;;3.45;1.95;;;;;;;;;;4994189;28;20529;-53
2021/01/08 02:32:11;;;;;;;4.50;2.20;;;;;;;;;;5013615;28;20038;-52
2021/01/08 02:34:37;;;;;;;3.03;1.63;;;;;;;;;;5013602;28;20029;-53
2021/01/08 02:37:03;;;;;;;3.33;1.85;;;;;;;;;;5013516;28;20095;-53
2021/01/08 02:39:30;;;;;;;3.42;1.50;;;;;;;;;;5013678;28;20465;-54
2021/01/08 02:41:56;;;;;;;2.83;1.50;;;;;;;;;;5012872;28;20030;-55
2021/01/08 02:44:23;;;;;;;3.10;1.98;;;;;;;;;;5012505;28;20025;-54
2021/01/08 02:46:49;;;;;;;2.75;1.55;;;;;;;;;;5013426;28;20025;-52
2021/01/08 02:49:15;;;;;;;2.70;1.50;;;;;;;;;;5013585;28;20018;-52
2021/01/08 02:51:41;;;;;;;1.92;1.30;;;;;;;;;;5013227;28;20060;-53
2021/01/08 02:54:08;;;;;;;2.53;1.40;;;;;;;;;;5013395;28;20064;-53
2021/01/08 02:56:39;;;;;;;3.05;1.40;;;;;;;;;;5013082;28;20160;-54
2021/01/08 02:59:06;;;;;;;3.03;1.80;;;;;;;;;;5013439;28;20041;-52
2021/01/08 03:01:33;;;;;;;3.10;1.60;;;;;;;;;;5013052;28;20377;-54
2021/01/08 03:04:00;;;;;;;2.53;1.63;;;;;;;;;;5012596;28;20092;-52
2021/01/08 03:06:27;;;;;;;3.20;1.80;;;;;;;;;;5013115;28;20493;-53
2021/01/08 03:08:54;;;;;;;6.40;3.60;;;;;;;;;;5013159;28;20018;-53
2021/01/08 03:11:20;;;;;;;7.65;3.83;;;;;;;;;;5013049;28;20026;-53
2021/01/08 03:13:46;;;;;;;5.95;3.33;;;;;;;;;;5013196;28;20028;-54
2021/01/08 03:16:13;;;;;;;5.47;2.95;;;;;;;;;;5012921;28;20026;-55
2021/01/08 03:18:39;;;;;;;5.45;3.33;;;;;;;;;;5013095;28;20026;-54
2021/01/08 03:21:05;;;;;;;2.97;1.67;;;;;;;;;;5013045;28;20022;-53
2021/01/08 03:23:31;;;;;;;2.63;1.55;;;;;;;;;;5012831;28;20128;-52
2021/01/08 03:25:57;;;;;;;3.72;1.40;;;;;;;;;;5012845;28;20449;-52
2021/01/08 03:28:23;;;;;;;2.30;1.50;;;;;;;;;;5013132;28;20415;-53
2021/01/08 03:30:49;;;;;;;2.75;1.40;;;;;;;;;;5012871;28;20473;-52
2021/01/08 03:33:15;;;;;;;2.28;1.40;;;;;;;;;;5012679;28;20049;-53
2021/01/08 03:35:41;;;;;;;2.65;1.55;;;;;;;;;;5012608;28;20056;-52
2021/01/08 03:38:07;;;;;;;3.22;1.70;;;;;;;;;;5013027;28;20026;-56
2021/01/08 03:40:36;;;;;;;4.05;1.98;;;;;;;;;;5012819;28;20118;-54
2021/01/08 03:43:02;;;;;;;3.30;1.90;;;;;;;;;;5012723;28;20022;-51
2021/01/08 03:45:28;;;;;;;3.75;1.90;;;;;;;;;;5012872;28;20417;-52
2021/01/08 03:47:54;;;;;;;4.15;2.30;;;;;;;;;;5012678;28;20477;-53
2021/01/08 03:50:21;;;;;;;4.25;2.10;;;;;;;;;;5012855;28;20381;-53
2021/01/08 03:52:47;;;;;;;4.13;2.10;;;;;;;;;;5012418;28;20033;-53
2021/01/08 03:55:13;;;;;;;3.17;1.70;;;;;;;;;;5012930;28;20038;-53
2021/01/08 03:57:39;;;;;;;4.18;2.60;;;;;;;;;;5012327;28;20042;-53
2021/01/08 04:00:06;;;;;;;7.80;4.15;;;;;;;;;;5012786;28;20044;-54
2021/01/08 04:02:32;;;;;;;10.98;5.22;;;;;;;;;;5011673;28;20117;-53
2021/01/08 04:04:59;;;;;;;19.48;9.10;;;;;;;;;;5012576;28;20477;-53
2021/01/08 04:07:25;;;;;;;22.92;10.60;;;;;;;;;;5012637;28;20049;-53
2021/01/08 04:09:51;;;;;;;18.42;9.02;;;;;;;;;;5012319;28;20034;-53
2021/01/08 04:12:17;;;;;;;17.25;8.20;;;;;;;;;;4994663;28;20029;-53
2021/01/08 04:14:44;;;;;;;12.65;7.00;;;;;;;;;;5016036;28;20026;-52
2021/01/08 04:17:10;;;;;;;25.95;14.00;;;;;;;;;;5018806;28;20080;-54
2021/01/08 04:19:36;;;;;;;20.10;11.00;;;;;;;;;;5019110;28;20025;-53
2021/01/08 04:22:02;;;;;;;14.85;8.15;;;;;;;;;;5018314;28;20030;-53
2021/01/08 04:24:28;;;;;;;11.65;7.28;;;;;;;;;;5018999;28;20382;-54
2021/01/08 04:26:54;;;;;;;12.63;6.97;;;;;;;;;;5018644;28;20492;-53
2021/01/08 04:29:20;;;;;;;13.95;7.00;;;;;;;;;;5018721;28;20034;-53
2021/01/08 04:31:46;;;;;;;12.45;6.78;;;;;;;;;;5018911;28;20037;-52
2021/01/08 04:34:12;;;;;;;7.80;4.30;;;;;;;;;;5018832;28;20497;-53
2021/01/08 04:36:38;;;;;;;5.80;3.60;;;;;;;;;;5018609;28;20524;-53
2021/01/08 04:39:04;;;;;;;6.43;3.72;;;;;;;;;;5018517;28;20478;-52
2021/01/08 04:41:31;;;;;;;7.03;4.13;;;;;;;;;;5018879;28;20022;-53
2021/01/08 04:43:57;;;;;;;7.40;4.40;;;;;;;;;;5016896;28;20026;-53
2021/01/08 04:46:31;;;;;;;6.40;4.40;;;;;;;;;;5018889;28;20100;-53
2021/01/08 04:48:59;;;;;;;7.90;5.20;;;;;;;;;;5018983;28;20362;-53
2021/01/08 04:51:25;;;;;;;6.25;4.40;;;;;;;;;;5018761;28;20021;-53
2021/01/08 04:53:52;;;;;;;6.18;3.83;;;;;;;;;;5018736;28;20033;-53
2021/01/08 04:56:19;;;;;;;7.75;4.68;;;;;;;;;;5018596;28;20057;-54
2021/01/08 04:58:46;;;;;;;6.32;3.80;;;;;;;;;;5018346;28;20025;-53
2021/01/08 05:01:12;;;;;;;6.10;3.20;;;;;;;;;;5018587;28;20097;-53
2021/01/08 05:03:38;;;;;;;7.57;3.88;;;;;;;;;;5018903;28;20029;-53
2021/01/08 05:06:04;;;;;;;10.68;6.22;;;;;;;;;;5018182;28;20022;-53
2021/01/08 05:08:30;;;;;;;2.25;1.70;;;;;;;;;;5018755;28;20036;-53
2021/01/08 05:10:56;;;;;;;3.65;2.60;;;;;;;;;;5018575;28;20462;-52
2021/01/08 05:13:32;;;;;;;3.13;2.20;;;;;;;;;;5018505;28;20064;-53
2021/01/08 05:16:01;;;;;;;3.83;2.50;;;;;;;;;;5018516;28;20018;-54
2021/01/08 05:18:29;;;;;;;4.05;2.60;;;;;;;;;;5018375;28;20097;-52
2021/01/08 05:20:55;;;;;;;4.13;3.17;;;;;;;;;;5018266;28;20593;-53
2021/01/08 05:23:22;;;;;;;3.60;2.80;;;;;;;;;;5018253;28;20490;-53
2021/01/08 05:25:48;;;;;;;4.82;3.20;;;;;;;;;;5017236;28;20418;-53
2021/01/08 05:28:18;;;;;;;4.28;3.00;;;;;;;;;;5015327;28;20048;-54
2021/01/08 05:30:44;;;;;;;5.60;3.97;;;;;;;;;;5015584;28;20097;-53
2021/01/08 05:33:13;;;;;;;6.57;3.85;;;;;;;;;;5015289;28;20032;-53
2021/01/08 05:35:39;;;;;;;10.23;6.40;;;;;;;;;;5014881;28;20033;-51
2021/01/08 05:38:06;;;;;;;6.22;4.40;;;;;;;;;;5014897;28;20041;-52
2021/01/08 05:40:33;;;;;;;11.55;7.13;;;;;;;;;;5014839;28;20470;-52
2021/01/08 05:43:02;;;;;;;4.18;3.05;;;;;;;;;;5014546;28;20026;-52
2021/01/08 05:45:30;;;;;;;2.60;2.00;;;;;;;;;;5014456;28;20049;-50
2021/01/08 05:48:00;;;;;;;3.70;2.63;;;;;;;;;;5014163;28;20026;-51
2021/01/08 05:50:28;;;;;;;4.20;2.05;;;;;;;;;;5013739;28;20026;-53
2021/01/08 05:52:55;;;;;;;3.05;2.67;;;;;;;;;;5014842;28;20021;-53
2021/01/08 05:55:21;;;;;;;6.75;4.03;;;;;;;;;;5014818;28;20076;-53
2021/01/08 05:57:50;;;;;;;9.68;4.88;;;;;;;;;;5014859;28;20034;-52
2021/01/08 06:00:16;;;;;;;8.13;4.55;;;;;;;;;;5014857;28;20029;-52
2021/01/08 06:02:42;;;;;;;13.70;7.50;;;;;;;;;;5013798;28;20033;-52
2021/01/08 06:05:09;;;;;;;6.22;4.20;;;;;;;;;;5012271;28;20036;-51
2021/01/08 06:07:38;;;;;;;6.93;4.68;;;;;;;;;;5014289;28;20036;-52
2021/01/08 06:10:06;;;;;;;7.57;4.82;;;;;;;;;;5000930;28;20029;-52
2021/01/08 06:12:37;;;;;;;5.68;3.65;;;;;;;;;;5013316;28;20022;-52
2021/01/08 06:15:05;;;;;;;6.68;4.38;;;;;;;;;;5014123;28;20018;-53
2021/01/08 06:17:31;;;;;;;9.95;5.82;;;;;;;;;;5014234;28;20037;-52
2021/01/08 06:20:02;;;;;;;7.70;4.72;;;;;;;;;;5014260;28;20026;-55
2021/01/08 06:22:35;;;;;;;5.32;3.50;;;;;;;;;;5013478;28;20033;-53
2021/01/08 06:25:01;;;;;;;8.40;4.85;;;;;;;;;;5014262;28;20033;-54
2021/01/08 06:27:31;;;;;;;8.38;5.47;;;;;;;;;;5013565;28;20061;-54
2021/01/08 06:30:02;;;;;;;8.52;5.38;;;;;;;;;;5013766;28;20497;-54
2021/01/08 06:32:29;;;;;;;7.65;4.70;;;;;;;;;;5014360;28;20488;-53
2021/01/08 06:35:00;;;;;;;7.03;4.32;;;;;;;;;;5013869;28;20014;-54
2021/01/08 06:37:35;;;;;;;7.95;4.38;;;;;;;;;;5013120;28;20034;-53
2021/01/08 06:40:03;;;;;;;10.75;6.22;;;;;;;;;;5001349;28;20366;-54
2021/01/08 06:42:29;;;;;;;15.95;8.65;;;;;;;;;;5013706;28;20105;-53
2021/01/08 06:44:56;;;;;;;16.85;9.68;;;;;;;;;;4996361;28;20535;-53
2021/01/08 06:47:22;;;;;;;24.30;16.02;;;;;;;;;;5013868;28;20026;-53
2021/01/08 06:49:52;;;;;;;13.45;8.80;;;;;;;;;;5013651;28;20026;-53
2021/01/08 06:52:18;;;;;;;13.77;8.68;;;;;;;;;;5013814;28;20029;-53
2021/01/08 06:54:45;;;;;;;13.50;8.82;;;;;;;;;;5013709;28;20488;-54
2021/01/08 06:57:18;;;;;;;16.55;10.55;;;;;;;;;;5013477;28;20038;-53
2021/01/08 06:59:52;;;;;;;16.05;10.00;;;;;;;;;;5013642;28;20089;-53
2021/01/08 07:02:18;;;;;;;12.73;8.23;;;;;;;;;;5013660;28;20030;-53
2021/01/08 07:04:44;;;;;;;16.90;11.50;;;;;;;;;;5013424;28;20473;-53
2021/01/08 07:07:36;;;;;;;9.00;6.25;;;;;;;;;;5013667;28;20056;-54
2021/01/08 07:10:03;;;;;;;13.23;9.60;;;;;;;;;;5009946;28;20494;-55
2021/01/08 07:12:29;;;;;;;9.07;6.25;;;;;;;;;;5013422;28;20053;-53
2021/01/08 07:14:55;;;;;;;21.25;14.85;;;;;;;;;;5013622;28;20117;-53
2021/01/08 07:17:31;;;;;;;55.72;24.23;;;;;;;;;;5013081;28;20049;-53
2021/01/08 07:20:00;;;;;;;28.90;16.08;;;;;;;;;;5013285;28;20120;-53
2021/01/08 07:22:31;;;;;;;23.52;12.40;;;;;;;;;;5012690;28;20077;-54
2021/01/08 07:24:58;;;;;;;15.90;10.45;;;;;;;;;;5013323;28;20057;-54
2021/01/08 07:27:25;;;;;;;71.55;45.65;;;;;;;;;;5012954;28;20453;-54
2021/01/08 07:29:58;;;;;;;152.93;85.03;;;;;;;;;;5013063;28;20054;-53
2021/01/08 07:32:42;;;;;;;54.38;35.92;;;;;;;;;;5012995;28;20102;-53
2021/01/08 07:35:22;;;;;;;44.53;29.15;;;;;;;;;;5013005;28;20543;-53
2021/01/08 07:38:08;;;;;;;30.38;20.23;;;;;;;;;;5012770;28;20375;-52
2021/01/08 07:40:34;;;;;;;24.00;14.73;;;;;;;;;;5012639;28;20374;-54
2021/01/08 07:43:07;;;;;;;35.22;20.48;;;;;;;;;;5012856;28;20030;-53
2021/01/08 07:45:53;;;;;;;38.25;25.55;;;;;;;;;;5011417;28;20105;-53
2021/01/08 07:48:26;;;;;;;47.47;27.85;;;;;;;;;;5010436;28;20445;-53
2021/01/08 07:50:53;;;;;;;45.67;26.83;;;;;;;;;;5012271;28;20021;-52
2021/01/08 07:53:37;;;;;;;44.72;27.75;;;;;;;;;;5012617;28;20091;-53
2021/01/08 07:56:04;;;;;;;40.63;26.15;;;;;;;;;;4999031;28;20069;-53
2021/01/08 07:58:30;;;;;;;29.77;19.90;;;;;;;;;;5012281;28;20030;-53
2021/01/08 08:00:57;;;;;;;36.65;23.67;;;;;;;;;;5012474;28;20046;-54
2021/01/08 08:03:24;;;;;;;38.47;23.85;;;;;;;;;;5012503;28;20497;-53
2021/01/08 08:05:52;;;;;;;40.33;26.00;;;;;;;;;;5012404;28;20030;-53
2021/01/08 08:08:18;;;;;;;51.05;30.08;;;;;;;;;;5012581;28;20436;-53
2021/01/08 08:10:44;;;;;;;39.35;26.17;;;;;;;;;;5012192;28;20045;-53
2021/01/08 08:13:13;;;;;;;44.55;28.38;;;;;;;;;;5012555;28;20080;-54
2021/01/08 08:15:46;;;;;;;39.35;25.23;;;;;;;;;;5012118;28;20049;-53
2021/01/08 08:18:12;;;;;;;60.67;35.45;;;;;;;;;;4998981;28;20381;-53
2021/01/08 08:20:38;;;;;;;61.00;35.47;;;;;;;;;;5012451;28;20097;-53
2021/01/08 08:23:17;;;;;;;55.35;33.35;;;;;;;;;;5012063;28;20042;-52
2021/01/08 08:25:44;;;;;;;104.68;55.30;;;;;;;;;;5012484;28;20084;-53
2021/01/08 08:28:10;;;;;;;112.78;62.80;;;;;;;;;;5012346;28;20096;-53
2021/01/08 08:30:36;;;;;;;130.52;79.32;;;;;;;;;;5012519;28;20022;-53
2021/01/08 08:33:05;;;;;;;67.20;42.30;;;;;;;;;;5009576;28;20092;-53
2021/01/08 08:35:35;;;;;;;67.30;41.35;;;;;;;;;;5000718;28;20022;-55
2021/01/08 08:38:01;;;;;;;109.63;66.82;;;;;;;;;;5012088;28;20092;-53
2021/01/08 08:40:28;;;;;;;94.15;58.80;;;;;;;;;;5005703;28;20104;-53
2021/01/08 08:42:55;;;;;;;89.40;55.03;;;;;;;;;;5005602;28;20109;-53
2021/01/08 08:45:23;;;;;;;84.07;52.95;;;;;;;;;;5012317;28;20084;-54
2021/01/08 08:47:50;;;;;;;108.35;68.68;;;;;;;;;;5012294;28;20121;-54
2021/01/08 08:50:17;;;;;;;108.03;63.65;;;;;;;;;;5011068;28;20065;-54
2021/01/08 08:52:43;;;;;;;98.32;61.88;;;;;;;;;;5011939;28;20030;-53
2021/01/08 08:55:24;;;;;;;90.53;58.60;;;;;;;;;;5011836;28;20037;-54
2021/01/08 08:57:50;;;;;;;76.43;49.67;;;;;;;;;;5012057;28;20413;-55
2021/01/08 09:00:20;;;;;;;62.60;41.75;;;;;;;;;;5012692;28;20050;-53
2021/01/08 09:02:46;;;;;;;65.40;42.75;;;;;;;;;;5015963;28;20033;-53
2021/01/08 09:05:12;;;;;;;78.40;47.78;;;;;;;;;;5015448;28;20037;-52
2021/01/08 09:07:40;;;;;;;74.22;45.35;;;;;;;;;;5015474;28;20034;-54
2021/01/08 09:10:16;;;;;;;97.30;59.10;;;;;;;;;;5015857;28;20377;-54
2021/01/08 09:12:57;;;;;;;102.80;60.83;;;;;;;;;;5015574;28;20100;-53
2021/01/08 09:15:27;;;;;;;111.53;66.47;;;;;;;;;;5015345;28;20474;-53
2021/01/08 09:18:02;;;;;;;119.78;70.88;;;;;;;;;;5015433;28;20041;-53
2021/01/08 09:20:29;;;;;;;121.97;71.78;;;;;;;;;;5015408;28;20061;-55
2021/01/08 09:22:56;;;;;;;113.72;67.68;;;;;;;;;;5014996;28;20550;-52
2021/01/08 09:25:23;;;;;;;124.93;73.63;;;;;;;;;;5014024;28;20030;-55
2021/01/08 09:27:49;;;;;;;116.65;68.95;;;;;;;;;;5015293;28;20030;-53
2021/01/08 09:30:16;;;;;;;130.18;74.63;;;;;;;;;;5015000;28;20109;-53
2021/01/08 09:32:42;;;;;;;134.60;79.10;;;;;;;;;;5015129;28;20072;-53
2021/01/08 09:35:09;;;;;;;142.65;84.60;;;;;;;;;;5014971;28;20369;-53
2021/01/08 09:37:38;;;;;;;163.45;97.70;;;;;;;;;;5015062;28;20040;-53
2021/01/08 09:40:12;;;;;;;157.93;91.03;;;;;;;;;;5014838;28;20049;-53
2021/01/08 09:42:39;;;;;;;142.07;85.80;;;;;;;;;;5014818;28;20057;-53
2021/01/08 09:45:20;;;;;;;133.23;81.88;;;;;;;;;;5014707;28;20046;-53
2021/01/08 09:47:46;;;;;;;102.38;59.08;;;;;;;;;;5014926;28;20026;-55
2021/01/08 09:50:33;;;;;;;106.10;59.67;;;;;;;;;;5014722;28;20069;-55
2021/01/08 09:53:00;;;;;;;113.30;63.17;;;;;;;;;;5014649;28;20029;-53
2021/01/08 09:55:30;;;;;;;103.53;60.15;;;;;;;;;;5014592;28;20433;-54
2021/01/08 09:58:03;;;;;;;157.90;87.30;;;;;;;;;;5014709;28;20041;-53
2021/01/08 10:00:30;;;;;;;119.78;65.15;;;;;;;;;;5014323;28;20028;-53
2021/01/08 10:02:56;;;;;;;109.60;62.90;;;;;;;;;;5014605;28;20037;-53
2021/01/08 10:05:22;;;;;;;100.10;59.63;;;;;;;;;;5014310;28;20084;-53
2021/01/08 10:07:49;;;;;;;92.30;55.60;;;;;;;;;;5013270;28;20424;-54
2021/01/08 10:10:16;;;;;;;118.38;71.43;;;;;;;;;;5014472;28;20026;-54
2021/01/08 10:12:45;;;;;;;113.65;68.63;;;;;;;;;;5013571;28;20101;-53
2021/01/08 10:15:12;;;;;;;118.70;73.68;;;;;;;;;;5014344;28;20061;-53
2021/01/08 10:18:04;;;;;;;165.93;102.53;;;;;;;;;;5013772;28;20044;-52
2021/01/08 10:20:30;;;;;;;239.32;139.50;;;;;;;;;;5010446;28;20119;-54
2021/01/08 10:22:56;;;;;;;239.73;139.35;;;;;;;;;;5013552;28;20077;-57
2021/01/08 10:25:25;;;;;;;252.55;144.77;;;;;;;;;;5013927;28;20057;-53
2021/01/08 10:27:51;;;;;;;292.02;164.43;;;;;;;;;;5013794;28;20036;-53
2021/01/08 10:30:18;;;;;;;287.08;159.80;;;;;;;;;;5013863;28;20087;-53
2021/01/08 10:32:47;;;;;;;242.60;137.32;;;;;;;;;;5013539;28;20140;-53
2021/01/08 10:35:14;;;;;;;222.40;127.65;;;;;;;;;;5013996;28;20026;-53
2021/01/08 10:37:40;;;;;;;229.88;131.88;;;;;;;;;;5013587;28;20036;-52
2021/01/08 10:40:07;;;;;;;283.33;156.75;;;;;;;;;;5013859;28;20025;-53
2021/01/08 10:42:33;;;;;;;282.13;149.05;;;;;;;;;;5013784;28;20025;-55
2021/01/08 10:45:00;;;;;;;261.85;140.68;;;;;;;;;;5013659;28;20420;-53
2021/01/08 10:47:26;;;;;;;267.23;135.68;;;;;;;;;;5012139;28;20394;-53
2021/01/08 10:49:53;;;;;;;319.55;160.65;;;;;;;;;;5013315;28;20029;-52
2021/01/08 10:52:19;;;;;;;198.93;107.32;;;;;;;;;;5012270;28;20022;-52
2021/01/08 10:54:46;;;;;;;250.77;128.75;;;;;;;;;;5013242;28;20116;-51
2021/01/08 10:57:12;;;;;;;284.02;151.10;;;;;;;;;;5008251;28;20092;-52
2021/01/08 10:59:38;;;;;;;237.00;127.47;;;;;;;;;;4992435;28;20085;-53
2021/01/08 11:02:04;;;;;;;201.52;107.45;;;;;;;;;;4995071;28;20097;-52
2021/01/08 11:04:30;;;;;;;242.57;126.45;;;;;;;;;;4994225;28;20029;-52
2021/01/08 11:06:56;;;;;;;191.80;105.55;;;;;;;;;;4997194;28;20500;-53
2021/01/08 11:09:23;;;;;;;170.23;94.10;;;;;;;;;;4992671;28;20026;-52
2021/01/08 11:11:49;;;;;;;181.18;99.70;;;;;;;;;;4991607;28;20037;-54
2021/01/08 11:14:15;;;;;;;282.00;142.82;;;;;;;;;;4995275;28;20030;-53
2021/01/08 11:16:41;;;;;;;221.68;119.63;;;;;;;;;;4992875;28;20486;-54
2021/01/08 11:19:07;;;;;;;171.00;101.55;;;;;;;;;;4992531;28;20015;-55
2021/01/08 11:21:33;;;;;;;292.77;161.02;;;;;;;;;;5007584;28;20076;-53
2021/01/08 11:23:59;;;;;;;139.32;80.30;;;;;;;;;;5012219;28;20046;-53
2021/01/08 11:26:32;;;;;;;148.70;83.07;;;;;;;;;;5012963;28;20041;-54
2021/01/08 11:28:58;;;;;;;174.00;96.80;;;;;;;;;;5005343;28;20065;-51
2021/01/08 11:31:34;;;;;;;147.32;85.95;;;;;;;;;;5012388;28;20034;-55
2021/01/08 11:34:00;;;;;;;187.82;108.93;;;;;;;;;;5012660;28;20025;-51
2021/01/08 11:36:27;;;;;;;178.85;104.35;;;;;;;;;;5011538;28;20120;-52
2021/01/08 11:38:53;;;;;;;171.35;100.28;;;;;;;;;;5012587;28;20480;-52
2021/01/08 11:41:20;;;;;;;161.88;97.55;;;;;;;;;;5013004;28;20033;-52
2021/01/08 11:43:46;;;;;;;186.80;105.90;;;;;;;;;;5012401;28;20029;-53
2021/01/08 11:46:19;;;;;;;213.07;116.95;;;;;;;;;;5012753;28;20038;-53
2021/01/08 11:48:45;;;;;;;273.02;137.60;;;;;;;;;;5012490;28;20025;-51
2021/01/08 11:51:15;;;;;;;261.90;139.30;;;;;;;;;;5012319;28;20021;-52
2021/01/08 11:53:44;;;;;;;269.35;146.93;;;;;;;;;;5012360;28;20137;-53
2021/01/08 11:56:10;;;;;;;257.95;139.65;;;;;;;;;;5012161;28;20113;-53
2021/01/08 11:58:37;;;;;;;254.60;138.93;;;;;;;;;;5012085;28;20111;-53
2021/01/08 12:01:03;;;;;;;225.02;126.18;;;;;;;;;;5011951;28;20029;-53
2021/01/08 12:03:30;;;;;;;181.63;102.95;;;;;;;;;;5012081;28;20088;-53
2021/01/08 12:05:56;;;;;;;161.32;92.70;;;;;;;;;;5012385;28;20022;-53
2021/01/08 12:08:22;;;;;;;207.52;112.60;;;;;;;;;;5011896;28;20064;-54
2021/01/08 12:10:48;;;;;;;158.82;90.05;;;;;;;;;;5011768;28;20377;-54
2021/01/08 12:13:14;;;;;;;154.43;93.13;;;;;;;;;;5011251;28;20059;-52
2021/01/08 12:15:40;;;;;;;189.60;113.93;;;;;;;;;;5009472;28;20022;-53
2021/01/08 12:18:06;;;;;;;122.05;75.55;;;;;;;;;;5000845;28;20030;-50
2021/01/08 12:20:32;;;;;;;117.53;70.70;;;;;;;;;;4987863;28;20073;-54
2021/01/08 12:22:58;;;;;;;95.65;57.10;;;;;;;;;;4987352;28;20055;-52
2021/01/08 12:25:24;;;;;;;97.75;56.03;;;;;;;;;;4986557;28;20037;-52
2021/01/08 12:27:50;;;;;;;105.22;56.83;;;;;;;;;;4990313;28;20123;-51
2021/01/08 12:30:16;;;;;;;103.82;57.60;;;;;;;;;;4990944;28;20076;-52
2021/01/08 12:32:42;;;;;;;114.30;63.05;;;;;;;;;;4989470;28;20054;-52
2021/01/08 12:35:09;;;;;;;95.95;55.28;;;;;;;;;;5007884;28;20061;-52
2021/01/08 12:37:35;;;;;;;94.47;53.63;;;;;;;;;;5010680;28;20037;-53
2021/01/08 12:40:01;;;;;;;108.20;62.70;;;;;;;;;;5011312;28;20528;-53
2021/01/08 12:42:27;;;;;;;118.82;69.68;;;;;;;;;;5010883;28;20025;-52
2021/01/08 12:44:53;;;;;;;104.20;63.20;;;;;;;;;;5011120;28;20033;-53
2021/01/08 12:47:19;;;;;;;102.00;59.25;;;;;;;;;;5010942;28;20025;-53
2021/01/08 12:49:45;;;;;;;130.27;79.70;;;;;;;;;;5010718;28;20030;-53
2021/01/08 12:52:11;;;;;;;142.50;85.43;;;;;;;;;;5011248;28;20053;-53
2021/01/08 12:54:37;;;;;;;183.70;103.78;;;;;;;;;;5011118;28;20034;-53
2021/01/08 12:57:04;;;;;;;189.80;106.50;;;;;;;;;;5012393;28;20126;-54
2021/01/08 12:59:30;;;;;;;180.13;102.68;;;;;;;;;;5010698;28;20488;-54
2021/01/08 13:01:59;;;;;;;166.07;96.70;;;;;;;;;;5010946;28;20030;-51
2021/01/08 13:04:25;;;;;;;175.57;96.22;;;;;;;;;;5010177;28;20032;-52
2021/01/08 13:06:51;;;;;;;127.28;74.57;;;;;;;;;;5013214;28;20051;-52
2021/01/08 13:09:17;;;;;;;114.03;68.03;;;;;;;;;;5006249;28;20104;-54
2021/01/08 13:11:43;;;;;;;104.70;63.92;;;;;;;;;;4996460;28;20029;-52
2021/01/08 13:14:09;;;;;;;101.32;61.92;;;;;;;;;;4998985;28;20025;-53
2021/01/08 13:16:35;;;;;;;94.10;58.70;;;;;;;;;;5001548;28;20026;-52
2021/01/08 13:19:01;;;;;;;99.90;63.40;;;;;;;;;;5015415;28;20028;-53
2021/01/08 13:21:27;;;;;;;110.90;67.88;;;;;;;;;;5015265;28;20018;-53
2021/01/08 13:23:53;;;;;;;101.13;62.45;;;;;;;;;;5014573;28;20049;-53
2021/01/08 13:26:23;;;;;;;124.78;78.30;;;;;;;;;;5015197;28;20061;-53
2021/01/08 13:28:49;;;;;;;151.35;91.20;;;;;;;;;;5014419;28;20025;-54
2021/01/08 13:31:20;;;;;;;170.82;99.68;;;;;;;;;;5014428;28;20026;-51
2021/01/08 13:33:46;;;;;;;161.32;94.10;;;;;;;;;;5014561;28;20022;-54
2021/01/08 13:36:12;;;;;;;166.93;100.05;;;;;;;;;;5014360;28;20042;-55
2021/01/08 13:38:38;;;;;;;151.30;90.05;;;;;;;;;;5014425;28;20029;-55
2021/01/08 13:41:04;;;;;;;143.25;85.05;;;;;;;;;;5014933;28;20029;-55
2021/01/08 13:43:33;;;;;;;164.00;100.57;;;;;;;;;;5014636;28;20025;-53
2021/01/08 13:45:59;;;;;;;191.75;115.20;;;;;;;;;;5014443;28;20021;-53
2021/01/08 13:48:25;;;;;;;174.40;102.95;;;;;;;;;;5012295;28;20046;-52
2021/01/08 13:50:51;;;;;;;153.48;91.03;;;;;;;;;;5014633;28;20025;-50
2021/01/08 13:53:17;;;;;;;146.98;85.88;;;;;;;;;;5014350;28;20065;-52
2021/01/08 13:55:43;;;;;;;146.52;86.45;;;;;;;;;;5014666;28;20037;-55
2021/01/08 13:58:09;;;;;;;141.13;83.53;;;;;;;;;;5012859;28;20029;-53
2021/01/08 14:00:35;;;;;;;149.25;90.95;;;;;;;;;;5014242;28;20116;-53
2021/01/08 14:03:01;;;;;;;156.73;96.03;;;;;;;;;;5014394;28;20096;-53
2021/01/08 14:05:27;;;;;;;174.20;104.28;;;;;;;;;;5013442;28;20022;-52
2021/01/08 14:07:53;;;;;;;202.20;116.53;;;;;;;;;;5014010;28;20025;-56
2021/01/08 14:10:20;;;;;;;261.95;147.18;;;;;;;;;;5014245;28;20052;-55
2021/01/08 14:12:46;;;;;;;293.20;158.93;;;;;;;;;;5013265;28;20424;-56
2021/01/08 14:15:14;;;;;;;285.50;153.43;;;;;;;;;;5013324;28;20549;-55
2021/01/08 14:17:40;;;;;;;260.08;145.80;;;;;;;;;;5013915;28;20044;-53
2021/01/08 14:20:07;;;;;;;305.70;173.18;;;;;;;;;;5014058;28;20596;-53
2021/01/08 14:22:33;;;;;;;264.73;147.35;;;;;;;;;;5013413;28;20037;-53